createdAt,value
2023-03-02T00:00:00.398Z,992.3
2023-03-02T00:10:00.412Z,992.1
2023-03-02T00:20:00.414Z,992.1
2023-03-02T00:30:00.412Z,992.1
2023-03-02T00:40:00.416Z,991.9
2023-03-02T00:50:00.442Z,991.8
2023-03-02T01:00:00.402Z,991.8
2023-03-02T01:10:00.413Z,991.7
2023-03-02T01:20:00.502Z,991.6
2023-03-02T01:30:00.441Z,991.5
2023-03-02T01:40:00.407Z,991.4
2023-03-02T01:50:00.402Z,991.3
2023-03-02T02:00:00.428Z,991.2
2023-03-02T02:10:00.434Z,991.0
2023-03-02T02:20:00.443Z,990.9
2023-03-02T02:30:00.417Z,990.8
2023-03-02T02:40:00.416Z,990.8
2023-03-02T02:50:00.408Z,990.7
2023-03-02T03:00:00.432Z,990.7
2023-03-02T03:10:00.471Z,990.7
2023-03-02T03:20:00.403Z,990.8
2023-03-02T03:30:00.492Z,990.8
2023-03-02T03:40:00.488Z,990.8
2023-03-02T03:50:00.403Z,990.8
2023-03-02T04:00:00.422Z,990.8
2023-03-02T04:10:00.391Z,990.8
2023-03-02T04:20:00.485Z,990.8
2023-03-02T04:30:00.415Z,990.9
2023-03-02T04:40:00.423Z,991.0
2023-03-02T04:50:00.408Z,990.8
2023-03-02T05:00:00.418Z,990.8
2023-03-02T05:10:00.408Z,990.8
2023-03-02T05:20:00.477Z,990.8
2023-03-02T05:30:00.459Z,990.9
2023-03-02T05:40:00.429Z,990.9
2023-03-02T05:50:00.420Z,990.9
2023-03-02T06:00:00.411Z,991.0
2023-03-02T06:10:00.434Z,991.1
2023-03-02T06:20:00.426Z,991.1
2023-03-02T06:30:00.424Z,991.2
2023-03-02T06:40:00.423Z,991.2
2023-03-02T06:50:00.424Z,991.3
2023-03-02T07:00:00.405Z,991.3
2023-03-02T07:10:00.432Z,991.4
2023-03-02T07:20:00.424Z,991.4
2023-03-02T07:30:00.404Z,991.4
2023-03-02T07:40:00.965Z,991.4
2023-03-02T07:50:00.420Z,991.3
2023-03-02T08:00:00.428Z,991.2
2023-03-02T08:10:00.410Z,991.2
2023-03-02T08:20:00.469Z,991.2
2023-03-02T08:30:00.443Z,991.2
2023-03-02T08:40:00.424Z,991.1
2023-03-02T08:50:00.405Z,991.1
2023-03-02T09:00:00.416Z,991.0
2023-03-02T09:10:00.412Z,991.0
2023-03-02T09:20:00.424Z,991.0
2023-03-02T09:30:00.423Z,990.9
2023-03-02T09:40:00.411Z,991.0
2023-03-02T09:50:00.406Z,991.0
2023-03-02T10:00:09.535Z,990.8
2023-03-02T10:10:00.435Z,990.8
2023-03-02T10:20:00.431Z,990.7
2023-03-02T10:30:00.414Z,990.7
2023-03-02T10:40:00.422Z,990.6
2023-03-02T10:50:00.412Z,990.5
2023-03-02T11:00:00.423Z,990.5
2023-03-02T11:10:00.525Z,990.3
2023-03-02T11:20:00.413Z,990.3
2023-03-02T11:30:00.402Z,990.2
2023-03-02T11:40:00.399Z,990.1
2023-03-02T11:50:00.428Z,990.0
2023-03-02T12:00:00.422Z,989.9
2023-03-02T12:10:00.422Z,989.9
2023-03-02T12:20:00.427Z,989.8
2023-03-02T12:30:00.423Z,989.7
2023-03-02T12:40:02.784Z,989.6
2023-03-02T12:50:00.408Z,989.5
2023-03-02T13:00:00.406Z,989.4
2023-03-02T13:10:00.540Z,989.3
2023-03-02T13:20:00.431Z,989.2
2023-03-02T13:30:00.403Z,989.1
2023-03-02T13:40:00.419Z,989.1
2023-03-02T13:50:00.457Z,989.0
2023-03-02T14:00:00.414Z,988.8
2023-03-02T14:10:00.416Z,988.7
2023-03-02T14:20:00.404Z,988.6
2023-03-02T14:30:00.505Z,988.4
2023-03-02T14:40:00.438Z,988.4
2023-03-02T14:50:00.434Z,988.3
2023-03-02T15:00:00.526Z,988.3
2023-03-02T15:10:00.411Z,988.2
2023-03-02T15:20:00.456Z,988.2
2023-03-02T15:30:00.819Z,988.2
2023-03-02T15:40:04.327Z,988.2
2023-03-02T16:10:00.538Z,988.4
2023-03-02T16:30:00.305Z,988.4
2023-03-02T16:40:00.249Z,988.5
2023-03-02T16:50:00.249Z,988.6
2023-03-02T17:00:00.293Z,988.7
2023-03-02T17:10:00.258Z,988.7
2023-03-02T17:20:00.268Z,988.7
2023-03-02T17:30:00.257Z,988.7
2023-03-02T17:40:00.246Z,988.7
2023-03-02T17:50:00.256Z,988.8
2023-03-02T18:00:00.277Z,988.8
2023-03-02T18:10:00.258Z,988.9
2023-03-02T18:20:00.284Z,988.9
2023-03-02T18:30:00.325Z,988.9
2023-03-02T18:40:00.284Z,988.9
2023-03-02T18:50:00.243Z,989.0
2023-03-02T19:00:00.440Z,989.0
2023-03-02T19:10:00.419Z,989.0
2023-03-02T19:20:00.270Z,989.0
2023-03-02T19:30:00.285Z,989.0
2023-03-02T19:40:00.256Z,989.0
2023-03-02T19:50:00.263Z,989.1
2023-03-02T20:00:00.257Z,989.1
2023-03-02T20:10:00.247Z,989.0
2023-03-02T20:20:00.266Z,989.0
2023-03-02T20:30:00.249Z,989.0
2023-03-02T20:40:00.285Z,989.1
2023-03-02T20:50:00.332Z,989.1
2023-03-02T21:00:00.262Z,989.1
2023-03-02T21:10:00.272Z,989.0
2023-03-02T21:20:00.281Z,988.9
2023-03-02T21:30:00.278Z,988.9
2023-03-02T21:40:00.254Z,988.9
2023-03-02T21:50:00.285Z,988.9
2023-03-02T22:00:00.263Z,988.9
2023-03-02T22:10:00.423Z,988.9
2023-03-02T22:20:00.286Z,988.8
2023-03-02T22:30:00.251Z,988.8
2023-03-02T22:40:00.259Z,988.8
2023-03-02T22:50:00.279Z,988.8
2023-03-02T23:00:00.263Z,988.8
2023-03-02T23:10:00.274Z,988.6
2023-03-02T23:20:00.378Z,988.6
2023-03-02T23:30:00.290Z,988.5
2023-03-02T23:40:00.318Z,988.5
2023-03-02T23:50:00.248Z,988.4
